Time;durP1;ratioP1;P1;durP2;ratioP2;P2;SDS_P1;SDS_P2;PMS_P1;PMS_P2;Temp;Humidity;BMP_temperature;BMP_pressure;BME280_temperature;BME280_humidity;BME280_pressure;Samples;Min_cycle;Max_cycle;Signal;HPM_P1;HPM_P2
2023/09/15 00:02:25;;;;;;;8.90;7.10;;;;;;;;;;6210964;28;20199;-68
2023/09/15 00:05:28;;;;;;;7.57;6.87;;;;;;;;;;6217078;28;20203;-68
2023/09/15 00:08:29;;;;;;;8.03;6.83;;;;;;;;;;6214360;28;20215;-68
2023/09/15 00:11:40;;;;;;;9.27;6.83;;;;;;;;;;6208785;28;20226;-68
2023/09/15 00:14:41;;;;;;;8.30;6.60;;;;;;;;;;6214492;28;20188;-68
2023/09/15 00:17:42;;;;;;;7.37;6.67;;;;;;;;;;6197524;28;20198;-68
2023/09/15 00:20:44;;;;;;;7.50;6.30;;;;;;;;;;6223717;28;20196;-68
2023/09/15 00:23:45;;;;;;;11.80;6.80;;;;;;;;;;6218086;28;20342;-68
2023/09/15 00:26:48;;;;;;;9.47;6.40;;;;;;;;;;6223080;28;20201;-68
2023/09/15 00:29:49;;;;;;;13.03;6.83;;;;;;;;;;6211990;28;20196;-68
2023/09/15 00:32:50;;;;;;;10.40;6.97;;;;;;;;;;6198341;28;20210;-68
2023/09/15 00:35:51;;;;;;;7.43;6.63;;;;;;;;;;6188258;28;20192;-68
2023/09/15 00:38:54;;;;;;;8.53;6.33;;;;;;;;;;6208372;28;20186;-68
2023/09/15 00:41:55;;;;;;;8.63;7.10;;;;;;;;;;6204388;28;20290;-68
2023/09/15 00:45:00;;;;;;;7.70;6.90;;;;;;;;;;6203236;28;20219;-68
2023/09/15 00:48:03;;;;;;;11.77;7.77;;;;;;;;;;6215628;28;20218;-68
2023/09/15 00:51:07;;;;;;;7.83;7.07;;;;;;;;;;6206094;28;20253;-68
2023/09/15 00:54:08;;;;;;;10.43;7.37;;;;;;;;;;6217953;28;20196;-68
2023/09/15 00:57:09;;;;;;;12.73;7.47;;;;;;;;;;6200778;28;20195;-68
2023/09/15 01:00:13;;;;;;;9.50;6.80;;;;;;;;;;6217256;28;20218;-68
2023/09/15 01:03:17;;;;;;;10.13;7.47;;;;;;;;;;6212870;28;20196;-68
2023/09/15 01:06:19;;;;;;;9.90;6.87;;;;;;;;;;6228988;28;20187;-68
2023/09/15 01:09:22;;;;;;;9.50;7.00;;;;;;;;;;6218515;28;20192;-68
2023/09/15 01:12:23;;;;;;;8.40;6.70;;;;;;;;;;6212726;28;20281;-68
2023/09/15 01:15:33;;;;;;;9.13;7.27;;;;;;;;;;6204397;28;20195;-68
2023/09/15 01:18:43;;;;;;;9.87;6.83;;;;;;;;;;6207114;28;20193;-68
2023/09/15 01:22:04;;;;;;;11.27;6.17;;;;;;;;;;6210735;28;20195;-68
2023/09/15 01:25:05;;;;;;;9.00;6.67;;;;;;;;;;6204099;28;20235;-68
2023/09/15 01:28:19;;;;;;;7.60;6.87;;;;;;;;;;6206217;28;20195;-67
2023/09/15 01:31:20;;;;;;;9.07;6.43;;;;;;;;;;6207206;28;20215;-67
2023/09/15 01:34:21;;;;;;;7.33;6.63;;;;;;;;;;6227312;28;20186;-67
2023/09/15 01:37:23;;;;;;;11.17;7.13;;;;;;;;;;6212949;28;20191;-67
2023/09/15 01:40:25;;;;;;;8.30;6.60;;;;;;;;;;6207088;28;20250;-67
2023/09/15 01:43:26;;;;;;;10.60;6.37;;;;;;;;;;6203053;28;20192;-67
2023/09/15 01:46:27;;;;;;;10.07;6.73;;;;;;;;;;6219762;28;20273;-67
2023/09/15 01:49:29;;;;;;;8.03;7.23;;;;;;;;;;6199205;28;20187;-67
2023/09/15 01:52:30;;;;;;;9.70;6.40;;;;;;;;;;6226649;28;20229;-67
2023/09/15 01:55:32;;;;;;;8.13;6.93;;;;;;;;;;6201736;28;20195;-67
2023/09/15 01:58:33;;;;;;;13.80;7.23;;;;;;;;;;6217523;28;20203;-67
2023/09/15 02:01:34;;;;;;;7.60;6.30;;;;;;;;;;6200619;28;20250;-67
2023/09/15 02:04:35;;;;;;;8.33;6.43;;;;;;;;;;6202867;28;20250;-67
2023/09/15 02:07:36;;;;;;;8.80;6.17;;;;;;;;;;6204486;28;20206;-67
2023/09/15 02:10:37;;;;;;;9.57;6.43;;;;;;;;;;6206866;28;20226;-67
2023/09/15 02:13:39;;;;;;;7.23;6.03;;;;;;;;;;6217279;28;20186;-67
2023/09/15 02:16:42;;;;;;;10.00;6.57;;;;;;;;;;6212104;28;20198;-67
2023/09/15 02:19:43;;;;;;;7.70;6.57;;;;;;;;;;6207346;28;20199;-67
2023/09/15 02:22:45;;;;;;;6.70;6.10;;;;;;;;;;6211520;28;20214;-67
2023/09/15 02:25:46;;;;;;;11.47;7.37;;;;;;;;;;6220251;28;20239;-67
2023/09/15 02:28:47;;;;;;;7.20;6.50;;;;;;;;;;6216215;28;20199;-67
2023/09/15 02:31:49;;;;;;;7.40;6.63;;;;;;;;;;6202821;28;20211;-67
2023/09/15 02:34:50;;;;;;;13.17;6.40;;;;;;;;;;6219750;28;20184;-67
2023/09/15 02:37:51;;;;;;;6.57;5.90;;;;;;;;;;6212536;28;20183;-67
2023/09/15 02:40:52;;;;;;;7.43;6.67;;;;;;;;;;6206856;28;20249;-67
2023/09/15 02:43:53;;;;;;;8.20;6.90;;;;;;;;;;6224847;28;20188;-67
2023/09/15 02:46:54;;;;;;;9.97;5.90;;;;;;;;;;6201301;28;20243;-67
2023/09/15 02:49:55;;;;;;;9.23;6.37;;;;;;;;;;6203653;28;20206;-67
2023/09/15 02:52:56;;;;;;;7.77;6.40;;;;;;;;;;6210350;28;20217;-67
2023/09/15 02:56:04;;;;;;;6.57;5.97;;;;;;;;;;6214251;28;20284;-67
2023/09/15 02:59:05;;;;;;;9.27;6.13;;;;;;;;;;6204804;28;20212;-67
2023/09/15 03:02:12;;;;;;;7.80;6.23;;;;;;;;;;6203538;28;20195;-67
2023/09/15 03:05:13;;;;;;;9.17;6.27;;;;;;;;;;6193351;28;20204;-67
2023/09/15 03:08:14;;;;;;;7.23;6.43;;;;;;;;;;6201827;28;20270;-67
2023/09/15 03:11:17;;;;;;;7.67;5.80;;;;;;;;;;6206778;28;20223;-67
2023/09/15 03:14:18;;;;;;;8.10;5.90;;;;;;;;;;6222511;28;20195;-67
2023/09/15 03:17:21;;;;;;;8.90;6.63;;;;;;;;;;6189501;28;20192;-67
2023/09/15 03:20:22;;;;;;;10.83;7.00;;;;;;;;;;6215305;28;20196;-67
2023/09/15 03:23:23;;;;;;;7.17;6.47;;;;;;;;;;6225031;28;20238;-67
2023/09/15 03:26:24;;;;;;;7.23;6.53;;;;;;;;;;6218101;28;20208;-67
2023/09/15 03:29:25;;;;;;;6.90;6.17;;;;;;;;;;6201520;28;20205;-67
2023/09/15 03:32:26;;;;;;;9.60;6.13;;;;;;;;;;6196403;28;20223;-67
2023/09/15 03:35:28;;;;;;;7.50;6.73;;;;;;;;;;6207153;28;20207;-67
2023/09/15 03:38:29;;;;;;;8.27;6.90;;;;;;;;;;6203684;28;20195;-67
2023/09/15 03:41:30;;;;;;;7.70;6.00;;;;;;;;;;6201916;28;20196;-67
2023/09/15 03:44:32;;;;;;;8.73;7.30;;;;;;;;;;6204557;28;20199;-68
2023/09/15 03:47:33;;;;;;;8.83;7.10;;;;;;;;;;6206544;28;20207;-67
2023/09/15 03:50:35;;;;;;;9.17;6.80;;;;;;;;;;6206048;28;20237;-68
2023/09/15 03:53:36;;;;;;;7.90;6.77;;;;;;;;;;6208641;28;20192;-67
2023/09/15 03:56:37;;;;;;;7.87;6.90;;;;;;;;;;6223591;28;20205;-68
2023/09/15 03:59:38;;;;;;;6.70;6.00;;;;;;;;;;6206950;28;20193;-68
2023/09/15 04:02:39;;;;;;;9.33;6.73;;;;;;;;;;6210752;28;20299;-68
2023/09/15 04:05:40;;;;;;;8.33;7.17;;;;;;;;;;6206229;28;20199;-69
2023/09/15 04:08:41;;;;;;;9.63;7.33;;;;;;;;;;6210114;28;20195;-70
2023/09/15 04:11:43;;;;;;;9.47;7.07;;;;;;;;;;6203779;28;20215;-69
2023/09/15 04:14:44;;;;;;;8.63;7.40;;;;;;;;;;6212390;28;20204;-70
2023/09/15 04:17:45;;;;;;;11.37;6.37;;;;;;;;;;6203129;28;20290;-70
2023/09/15 04:20:49;;;;;;;8.63;6.60;;;;;;;;;;6207921;28;20195;-70
2023/09/15 04:23:50;;;;;;;8.13;6.47;;;;;;;;;;6217464;28;20235;-71
2023/09/15 04:26:51;;;;;;;7.07;6.17;;;;;;;;;;6202812;28;20277;-71
2023/09/15 04:29:56;;;;;;;7.30;6.60;;;;;;;;;;6224900;28;20194;-69
2023/09/15 04:32:58;;;;;;;7.60;6.77;;;;;;;;;;6224837;28;20230;-70
2023/09/15 04:35:59;;;;;;;8.73;6.47;;;;;;;;;;6206964;28;20188;-70
2023/09/15 04:39:00;;;;;;;10.83;7.40;;;;;;;;;;6213613;28;20195;-68
2023/09/15 04:42:02;;;;;;;6.63;6.13;;;;;;;;;;6205951;28;20200;-70
2023/09/15 04:45:03;;;;;;;7.43;6.73;;;;;;;;;;6201461;28;20203;-71
2023/09/15 04:48:05;;;;;;;10.77;7.37;;;;;;;;;;6200365;28;20196;-71
2023/09/15 04:51:06;;;;;;;6.67;5.83;;;;;;;;;;6203562;28;20216;-71
2023/09/15 04:54:07;;;;;;;6.70;6.10;;;;;;;;;;6219583;28;20203;-71
2023/09/15 04:57:08;;;;;;;9.70;6.60;;;;;;;;;;6197835;28;20193;-71
2023/09/15 05:00:13;;;;;;;11.00;7.07;;;;;;;;;;6196262;28;20204;-71
2023/09/15 05:03:14;;;;;;;9.60;6.50;;;;;;;;;;6187518;28;20200;-71
2023/09/15 05:06:15;;;;;;;8.30;6.53;;;;;;;;;;6199273;28;20195;-71
2023/09/15 05:09:20;;;;;;;7.40;6.53;;;;;;;;;;6203338;28;20199;-71
2023/09/15 05:12:21;;;;;;;9.77;6.87;;;;;;;;;;6207167;28;20223;-71
2023/09/15 05:15:22;;;;;;;7.70;7.00;;;;;;;;;;6192127;28;20214;-71
2023/09/15 05:18:23;;;;;;;8.33;7.00;;;;;;;;;;6200953;28;20230;-71
2023/09/15 05:21:24;;;;;;;8.70;6.63;;;;;;;;;;6203589;28;20190;-71
2023/09/15 05:24:25;;;;;;;7.80;6.27;;;;;;;;;;6198575;28;20254;-71
2023/09/15 05:27:26;;;;;;;6.97;6.37;;;;;;;;;;6198014;28;20202;-70
2023/09/15 05:30:28;;;;;;;8.40;6.80;;;;;;;;;;6199390;28;20188;-70
2023/09/15 05:33:29;;;;;;;7.17;6.50;;;;;;;;;;6196149;28;20201;-70
2023/09/15 05:36:30;;;;;;;6.80;6.20;;;;;;;;;;6209667;28;20187;-70
2023/09/15 05:39:31;;;;;;;7.50;6.70;;;;;;;;;;6219311;28;20210;-70
2023/09/15 05:42:32;;;;;;;7.27;6.57;;;;;;;;;;6199360;28;20205;-70
2023/09/15 05:45:33;;;;;;;8.33;7.53;;;;;;;;;;6201416;28;20202;-70
2023/09/15 05:48:34;;;;;;;7.63;6.93;;;;;;;;;;6205931;28;20266;-70
2023/09/15 05:51:35;;;;;;;9.07;7.73;;;;;;;;;;6216189;28;20298;-70
2023/09/15 05:54:36;;;;;;;10.10;7.53;;;;;;;;;;6195696;28;20184;-70
2023/09/15 05:57:37;;;;;;;9.37;7.60;;;;;;;;;;6197312;28;20246;-70
2023/09/15 06:00:38;;;;;;;9.07;7.93;;;;;;;;;;6212433;28;20204;-70
2023/09/15 06:03:39;;;;;;;9.53;7.43;;;;;;;;;;6203034;28;20264;-70
2023/09/15 06:06:41;;;;;;;7.50;6.80;;;;;;;;;;6198607;28;20195;-70
2023/09/15 06:09:42;;;;;;;13.57;8.53;;;;;;;;;;6216577;28;20193;-70
2023/09/15 06:12:43;;;;;;;7.70;6.90;;;;;;;;;;6191154;28;20228;-70
2023/09/15 06:15:44;;;;;;;12.03;7.23;;;;;;;;;;6196898;28;20208;-70
2023/09/15 06:18:45;;;;;;;8.77;6.83;;;;;;;;;;6197147;28;20196;-70
2023/09/15 06:21:46;;;;;;;9.90;8.03;;;;;;;;;;6206443;28;20188;-70
2023/09/15 06:24:47;;;;;;;8.53;7.63;;;;;;;;;;6198083;28;20269;-70
2023/09/15 06:27:49;;;;;;;11.73;7.37;;;;;;;;;;6199206;28;20237;-70
2023/09/15 06:30:51;;;;;;;8.10;7.40;;;;;;;;;;6213228;28;20301;-70
2023/09/15 06:33:52;;;;;;;7.60;6.80;;;;;;;;;;6201096;28;20216;-70
2023/09/15 06:36:53;;;;;;;8.47;7.70;;;;;;;;;;6192156;28;20208;-70
2023/09/15 06:39:54;;;;;;;8.53;7.30;;;;;;;;;;6195925;28;20254;-70
2023/09/15 06:42:55;;;;;;;9.70;7.63;;;;;;;;;;6197011;28;20412;-70
2023/09/15 06:45:57;;;;;;;8.30;7.50;;;;;;;;;;6202646;28;20190;-70
2023/09/15 06:48:58;;;;;;;8.40;7.47;;;;;;;;;;6193615;28;20200;-70
2023/09/15 06:51:59;;;;;;;10.73;7.20;;;;;;;;;;6209610;28;20204;-70
2023/09/15 06:55:00;;;;;;;8.70;7.80;;;;;;;;;;6200005;28;20274;-70
2023/09/15 06:58:01;;;;;;;8.53;7.63;;;;;;;;;;6205449;28;20179;-70
2023/09/15 07:01:04;;;;;;;8.73;7.93;;;;;;;;;;6205978;28;20231;-70
2023/09/15 07:04:05;;;;;;;9.40;8.43;;;;;;;;;;6233333;28;20199;-70
2023/09/15 07:07:06;;;;;;;10.20;8.97;;;;;;;;;;6223242;28;20194;-70
2023/09/15 07:10:07;;;;;;;8.93;7.80;;;;;;;;;;6199233;28;20196;-70
2023/09/15 07:13:08;;;;;;;8.77;7.97;;;;;;;;;;6209940;28;20239;-70
2023/09/15 07:16:09;;;;;;;9.33;8.33;;;;;;;;;;6217578;28;20191;-70
2023/09/15 07:19:11;;;;;;;8.67;7.63;;;;;;;;;;6203051;28;20222;-70
2023/09/15 07:22:12;;;;;;;9.13;7.40;;;;;;;;;;6199849;28;20278;-70
2023/09/15 07:25:13;;;;;;;7.20;6.50;;;;;;;;;;6213140;28;20245;-70
2023/09/15 07:28:15;;;;;;;8.50;7.60;;;;;;;;;;6201088;28;20306;-70
2023/09/15 07:31:16;;;;;;;7.93;7.23;;;;;;;;;;6202104;28;20218;-70
2023/09/15 07:34:21;;;;;;;9.60;7.03;;;;;;;;;;6218476;28;20314;-70
2023/09/15 07:37:22;;;;;;;6.40;5.80;;;;;;;;;;6196260;28;20198;-70
2023/09/15 07:40:23;;;;;;;7.57;6.17;;;;;;;;;;6215661;28;20196;-70
2023/09/15 07:43:24;;;;;;;6.60;5.90;;;;;;;;;;6196096;28;20187;-70
2023/09/15 07:46:25;;;;;;;6.73;6.10;;;;;;;;;;6207282;28;20189;-70
2023/09/15 07:49:27;;;;;;;7.37;6.00;;;;;;;;;;6220954;28;20190;-70
2023/09/15 07:52:29;;;;;;;6.63;5.93;;;;;;;;;;6217076;28;20211;-70
2023/09/15 07:55:30;;;;;;;5.83;5.33;;;;;;;;;;6194748;28;20191;-70
2023/09/15 07:58:31;;;;;;;6.17;5.67;;;;;;;;;;6203977;28;20245;-70
2023/09/15 08:01:32;;;;;;;6.20;5.70;;;;;;;;;;6200592;28;20188;-70
2023/09/15 08:04:33;;;;;;;6.03;5.53;;;;;;;;;;6210492;28;20191;-70
2023/09/15 08:07:34;;;;;;;6.30;5.70;;;;;;;;;;6214364;28;20190;-70
2023/09/15 08:10:35;;;;;;;6.37;5.77;;;;;;;;;;6197968;28;20202;-70
2023/09/15 08:13:36;;;;;;;7.73;5.43;;;;;;;;;;6206813;28;20191;-70
2023/09/15 08:16:37;;;;;;;5.70;5.20;;;;;;;;;;6200738;28;20241;-70
2023/09/15 08:19:39;;;;;;;6.63;5.93;;;;;;;;;;6207801;28;20190;-70
2023/09/15 08:22:41;;;;;;;5.57;5.07;;;;;;;;;;6205038;28;20216;-70
2023/09/15 08:25:42;;;;;;;5.43;4.93;;;;;;;;;;6213244;28;20235;-71
2023/09/15 08:28:43;;;;;;;6.20;5.07;;;;;;;;;;6202659;28;20197;-69
2023/09/15 08:31:44;;;;;;;5.77;5.13;;;;;;;;;;6206677;28;20212;-69
2023/09/15 08:34:45;;;;;;;5.10;4.70;;;;;;;;;;6207292;28;20194;-69
2023/09/15 08:37:48;;;;;;;5.23;4.80;;;;;;;;;;6209630;28;20276;-69
2023/09/15 08:40:51;;;;;;;5.63;5.00;;;;;;;;;;6220295;28;20245;-69
2023/09/15 08:43:52;;;;;;;5.33;4.83;;;;;;;;;;6212407;28;20188;-69
2023/09/15 08:46:56;;;;;;;5.40;4.90;;;;;;;;;;6204779;28;20191;-69
2023/09/15 08:49:58;;;;;;;6.63;4.60;;;;;;;;;;6221767;28;20310;-69
2023/09/15 08:53:00;;;;;;;5.30;4.80;;;;;;;;;;6202822;28;20220;-69
2023/09/15 08:56:02;;;;;;;5.53;5.00;;;;;;;;;;6214322;28;20192;-69
2023/09/15 08:59:03;;;;;;;4.80;4.40;;;;;;;;;;6215985;28;20191;-69
2023/09/15 09:02:05;;;;;;;5.43;5.03;;;;;;;;;;6218251;28;20242;-69
2023/09/15 09:05:06;;;;;;;4.53;4.13;;;;;;;;;;6205339;28;20199;-69
2023/09/15 09:08:09;;;;;;;5.50;4.83;;;;;;;;;;6206669;28;20511;-69
2023/09/15 09:11:10;;;;;;;6.50;4.97;;;;;;;;;;6212949;28;20209;-69
2023/09/15 09:14:12;;;;;;;7.03;4.80;;;;;;;;;;6206260;28;20207;-69
2023/09/15 09:17:14;;;;;;;4.67;4.27;;;;;;;;;;6208473;28;20250;-69
2023/09/15 09:20:25;;;;;;;4.80;4.40;;;;;;;;;;6213559;28;20199;-70
2023/09/15 09:23:26;;;;;;;5.63;4.37;;;;;;;;;;6215621;28;20331;-70
2023/09/15 09:26:27;;;;;;;4.57;4.20;;;;;;;;;;6205461;28;20317;-70
2023/09/15 09:29:28;;;;;;;3.90;3.60;;;;;;;;;;6206662;28;20187;-70
2023/09/15 09:32:29;;;;;;;4.80;4.40;;;;;;;;;;6190883;28;20215;-70
2023/09/15 09:35:30;;;;;;;5.57;5.13;;;;;;;;;;6206597;28;20203;-70
2023/09/15 09:38:31;;;;;;;5.10;4.60;;;;;;;;;;6223454;28;20268;-70
2023/09/15 09:41:33;;;;;;;4.53;4.13;;;;;;;;;;6188356;28;20196;-70
2023/09/15 09:44:37;;;;;;;4.43;4.13;;;;;;;;;;6202135;28;20199;-70
2023/09/15 09:47:39;;;;;;;4.07;3.77;;;;;;;;;;6203038;28;20188;-70
2023/09/15 09:50:40;;;;;;;4.40;4.03;;;;;;;;;;6217480;28;20207;-70
2023/09/15 09:53:41;;;;;;;4.00;3.70;;;;;;;;;;6202435;28;20194;-70
2023/09/15 09:56:48;;;;;;;5.37;4.57;;;;;;;;;;6207690;28;20198;-70
2023/09/15 09:59:49;;;;;;;4.67;4.27;;;;;;;;;;6216043;28;20196;-70
2023/09/15 10:02:50;;;;;;;4.80;4.30;;;;;;;;;;6201740;28;20290;-70
2023/09/15 10:05:55;;;;;;;4.27;3.87;;;;;;;;;;6204128;28;20199;-70
2023/09/15 10:08:59;;;;;;;5.00;4.60;;;;;;;;;;6202098;28;20194;-70
2023/09/15 10:12:01;;;;;;;4.97;4.47;;;;;;;;;;6207219;28;20214;-70
2023/09/15 10:15:06;;;;;;;4.50;4.10;;;;;;;;;;6200227;28;20199;-70
2023/09/15 10:18:08;;;;;;;4.60;3.90;;;;;;;;;;6204015;28;20202;-69
2023/09/15 10:21:09;;;;;;;5.50;4.07;;;;;;;;;;6207423;28;20203;-69
2023/09/15 10:24:12;;;;;;;4.20;3.90;;;;;;;;;;6206721;28;20326;-69
2023/09/15 10:27:13;;;;;;;4.17;3.87;;;;;;;;;;6205660;28;20231;-69
2023/09/15 10:30:14;;;;;;;4.40;4.00;;;;;;;;;;6220667;28;20281;-69
2023/09/15 10:33:15;;;;;;;4.97;3.50;;;;;;;;;;6213950;28;20310;-68
2023/09/15 10:36:17;;;;;;;4.67;4.27;;;;;;;;;;6204413;28;20199;-69
2023/09/15 10:39:18;;;;;;;4.47;4.10;;;;;;;;;;6218585;28;20191;-69
2023/09/15 10:42:19;;;;;;;4.50;4.10;;;;;;;;;;6196967;28;20198;-69
2023/09/15 10:45:20;;;;;;;4.23;3.93;;;;;;;;;;6208045;28;20442;-69
2023/09/15 10:48:21;;;;;;;5.03;4.10;;;;;;;;;;6194181;28;20191;-69
2023/09/15 10:51:24;;;;;;;4.07;3.77;;;;;;;;;;6206517;28;20211;-70
2023/09/15 10:54:26;;;;;;;4.47;4.07;;;;;;;;;;6215621;28;20188;-69
2023/09/15 10:57:27;;;;;;;5.10;4.70;;;;;;;;;;6216065;28;20200;-69
2023/09/15 11:00:29;;;;;;;3.33;3.13;;;;;;;;;;6209701;28;20195;-69
2023/09/15 11:03:31;;;;;;;3.93;3.63;;;;;;;;;;6204859;28;20270;-69
2023/09/15 11:06:32;;;;;;;3.77;3.53;;;;;;;;;;6218761;28;20192;-69
2023/09/15 11:09:34;;;;;;;3.80;3.50;;;;;;;;;;6222397;28;20254;-69
2023/09/15 11:12:35;;;;;;;4.23;3.77;;;;;;;;;;6203093;28;20226;-69
2023/09/15 11:15:36;;;;;;;4.27;3.60;;;;;;;;;;6204819;28;20289;-69
2023/09/15 11:18:38;;;;;;;4.03;3.73;;;;;;;;;;6209176;28;20233;-70
2023/09/15 11:21:40;;;;;;;3.70;3.40;;;;;;;;;;6210475;28;20191;-70
2023/09/15 11:24:42;;;;;;;4.40;4.00;;;;;;;;;;6207196;28;20246;-70
2023/09/15 11:27:43;;;;;;;5.57;3.83;;;;;;;;;;6221708;28;20284;-70
2023/09/15 11:30:45;;;;;;;3.70;3.40;;;;;;;;;;6206696;28;20190;-70
2023/09/15 11:33:46;;;;;;;3.80;3.53;;;;;;;;;;6210529;28;20198;-70
2023/09/15 11:36:48;;;;;;;4.57;4.03;;;;;;;;;;6205206;28;20246;-70
2023/09/15 11:39:50;;;;;;;4.57;3.73;;;;;;;;;;6205620;28;20275;-70
2023/09/15 11:43:00;;;;;;;3.90;3.60;;;;;;;;;;6213582;28;20203;-70
2023/09/15 11:46:02;;;;;;;4.13;3.73;;;;;;;;;;6206531;28;20180;-70
2023/09/15 11:49:07;;;;;;;4.07;3.77;;;;;;;;;;6222207;28;20230;-69
2023/09/15 11:52:09;;;;;;;4.30;3.53;;;;;;;;;;6205958;28;20222;-69
2023/09/15 11:55:23;;;;;;;4.27;3.97;;;;;;;;;;6203598;28;20242;-69
2023/09/15 11:58:25;;;;;;;3.83;3.63;;;;;;;;;;6218001;28;20266;-69
2023/09/15 12:01:27;;;;;;;4.07;3.70;;;;;;;;;;6203295;28;20195;-70
2023/09/15 12:04:29;;;;;;;4.17;3.57;;;;;;;;;;6213895;28;20195;-70
2023/09/15 12:07:30;;;;;;;4.20;3.87;;;;;;;;;;6212722;28;20200;-69
2023/09/15 12:10:31;;;;;;;4.30;3.20;;;;;;;;;;6205604;28;20199;-69
2023/09/15 12:13:35;;;;;;;5.47;3.40;;;;;;;;;;6214619;28;20223;-69
2023/09/15 12:16:37;;;;;;;4.57;3.60;;;;;;;;;;6206453;28;20195;-69
2023/09/15 12:19:38;;;;;;;5.33;3.40;;;;;;;;;;6206605;28;20187;-70
2023/09/15 12:22:43;;;;;;;3.93;3.37;;;;;;;;;;6204732;28;20198;-69
2023/09/15 12:25:44;;;;;;;3.77;3.47;;;23.30;81.70;;;;;;6212855;28;20235;-69
2023/09/15 12:28:45;;;;;;;3.87;3.33;;;24.40;66.70;;;;;;6209362;28;20246;-69
2023/09/15 12:31:47;;;;;;;3.73;2.90;;;24.70;64.70;;;;;;6198115;28;20215;-69
2023/09/15 12:34:48;;;;;;;3.27;2.97;;;24.70;64.30;;;;;;6173955;28;20226;-69
2023/09/15 12:37:48;;;;;;;3.83;3.40;;;24.40;64.20;;;;;;6174928;28;20188;-69
2023/09/15 12:40:50;;;;;;;3.73;3.43;;;24.20;65.00;;;;;;6173399;28;20187;-71
2023/09/15 12:43:51;;;;;;;5.23;4.20;;;23.80;65.40;;;;;;6216890;28;20183;-71
2023/09/15 12:46:52;;;;;;;4.37;3.97;;;23.40;66.90;;;;;;6189649;28;20191;-70
2023/09/15 12:49:52;;;;;;;5.10;4.03;;;23.10;66.90;;;;;;6218431;28;20210;-70
2023/09/15 12:52:54;;;;;;;4.47;3.63;;;22.80;68.00;;;;;;6208727;28;20204;-70
2023/09/15 12:55:56;;;;;;;4.10;3.70;;;22.60;68.60;;;;;;6185146;28;20263;-70
2023/09/15 12:58:59;;;;;;;5.17;3.87;;;22.50;69.80;;;;;;6176330;28;20192;-68
2023/09/15 13:02:00;;;;;;;4.00;3.63;;;22.50;69.10;;;;;;6199335;28;20198;-70
2023/09/15 13:05:01;;;;;;;3.97;3.53;;;22.50;70.90;;;;;;6203217;28;20290;-69
2023/09/15 13:08:01;;;;;;;3.90;3.60;;;22.50;71.40;;;;;;6191941;28;20191;-69
2023/09/15 13:11:02;;;;;;;3.90;3.60;;;22.60;70.60;;;;;;6217183;28;20212;-70
2023/09/15 13:14:03;;;;;;;4.53;3.80;;;22.70;71.20;;;;;;6203380;28;20183;-70
2023/09/15 13:17:04;;;;;;;3.80;3.33;;;22.80;69.60;;;;;;6196322;28;20191;-70
2023/09/15 13:20:09;;;;;;;5.67;3.57;;;22.90;71.30;;;;;;6190332;28;20303;-70
2023/09/15 13:23:09;;;;;;;4.60;3.70;;;22.90;71.80;;;;;;6203944;28;20191;-70
2023/09/15 13:26:11;;;;;;;3.80;3.50;;;23.00;71.30;;;;;;6217247;28;20218;-70
2023/09/15 13:29:11;;;;;;;4.00;3.70;;;22.90;70.60;;;;;;6202269;28;20196;-69
2023/09/15 13:32:12;;;;;;;3.90;3.50;;;22.80;70.40;;;;;;6188969;28;20243;-69
2023/09/15 13:35:13;;;;;;;4.30;3.90;;;22.60;70.70;;;;;;6199475;28;20564;-69
2023/09/15 13:38:14;;;;;;;5.23;3.70;;;22.30;71.00;;;;;;6233626;28;20209;-70
2023/09/15 13:41:14;;;;;;;3.80;3.50;;;22.10;71.70;;;;;;6212480;28;20192;-70
2023/09/15 13:44:15;;;;;;;4.37;3.97;;;22.10;72.00;;;;;;6207609;28;20194;-70
2023/09/15 13:47:16;;;;;;;4.50;3.83;;;22.30;71.90;;;;;;6184316;28;20192;-70
2023/09/15 13:50:16;;;;;;;4.20;3.80;;;22.50;68.10;;;;;;6182111;28;20191;-70
2023/09/15 13:53:18;;;;;;;4.00;3.70;;;22.60;69.50;;;;;;6192260;28;20214;-69
2023/09/15 13:56:18;;;;;;;4.50;3.73;;;22.60;70.30;;;;;;6223336;28;20194;-70
2023/09/15 13:59:19;;;;;;;4.17;3.37;;;22.60;71.50;;;;;;6171467;28;20206;-70
2023/09/15 14:02:20;;;;;;;4.97;3.80;;;22.50;71.90;;;;;;6181819;28;20199;-70
2023/09/15 14:05:20;;;;;;;4.83;4.37;;;22.40;69.30;;;;;;6183769;28;20202;-70
2023/09/15 14:08:23;;;;;;;3.43;3.23;;;22.80;71.40;;;;;;6189711;28;20194;-70
2023/09/15 14:11:25;;;;;;;5.83;3.60;;;23.60;68.30;;;;;;6214739;28;20294;-71
2023/09/15 14:14:26;;;;;;;3.50;3.27;;;24.50;66.80;;;;;;6200655;28;20202;-71
2023/09/15 14:17:27;;;;;;;5.37;3.50;;;25.30;64.20;;;;;;6206317;28;20191;-70
2023/09/15 14:20:29;;;;;;;3.93;3.00;;;25.30;62.30;;;;;;6198024;28;20220;-70
2023/09/15 14:23:29;;;;;;;3.53;3.17;;;25.40;64.00;;;;;;6187388;28;20236;-70
2023/09/15 14:26:30;;;;;;;4.20;3.80;;;25.50;63.70;;;;;;6180156;28;20197;-70
2023/09/15 14:29:32;;;;;;;4.27;3.87;;;25.40;64.00;;;;;;6189762;28;20190;-70
2023/09/15 14:32:33;;;;;;;4.33;3.77;;;25.00;65.30;;;;;;6215028;28;20211;-70
2023/09/15 14:35:34;;;;;;;3.63;3.13;;;25.00;66.30;;;;;;6187376;28;20223;-70
2023/09/15 14:38:36;;;;;;;5.70;4.03;;;25.00;65.50;;;;;;6213740;28;20186;-70
2023/09/15 14:41:38;;;;;;;3.53;3.33;;;24.70;67.00;;;;;;6200160;28;20226;-71
2023/09/15 14:44:38;;;;;;;3.33;3.13;;;24.40;69.10;;;;;;6196709;28;20195;-72
2023/09/15 14:47:39;;;;;;;3.83;3.53;;;24.50;67.80;;;;;;6184140;28;20191;-72
2023/09/15 14:50:40;;;;;;;3.80;3.50;;;24.80;67.80;;;;;;6172019;28;20191;-72
2023/09/15 14:53:41;;;;;;;3.67;3.20;;;25.10;64.70;;;;;;6205390;28;20191;-72
2023/09/15 14:56:42;;;;;;;3.10;2.90;;;25.30;63.60;;;;;;6189867;28;20254;-72
2023/09/15 14:59:42;;;;;;;3.90;3.53;;;25.00;62.70;;;;;;6182224;28;20192;-72
2023/09/15 15:02:43;;;;;;;3.40;3.20;;;24.60;63.60;;;;;;6199659;28;20183;-72
2023/09/15 15:05:44;;;;;;;7.07;3.90;;;24.40;64.90;;;;;;6168633;28;20188;-72
2023/09/15 15:08:45;;;;;;;3.93;3.53;;;24.10;67.10;;;;;;6188273;28;20218;-72
2023/09/15 15:11:46;;;;;;;3.97;3.67;;;23.90;68.70;;;;;;6205454;28;20210;-72
2023/09/15 15:14:47;;;;;;;3.90;3.60;;;23.80;69.20;;;;;;6216538;28;20223;-72
2023/09/15 15:17:48;;;;;;;4.83;3.37;;;24.20;69.00;;;;;;6205508;28;20245;-72
2023/09/15 15:20:50;;;;;;;3.67;3.37;;;24.40;66.50;;;;;;6185675;28;20195;-72
2023/09/15 15:23:51;;;;;;;4.43;4.03;;;24.40;66.20;;;;;;6199250;28;20250;-72
2023/09/15 15:26:52;;;;;;;6.03;3.63;;;24.20;68.50;;;;;;6200747;28;20216;-72
2023/09/15 15:29:57;;;;;;;5.30;4.10;;;24.00;69.20;;;;;;6193475;28;20198;-72
2023/09/15 15:32:58;;;;;;;5.73;4.30;;;23.70;70.00;;;;;;6215072;28;20218;-72
2023/09/15 15:36:00;;;;;;;4.43;3.80;;;23.50;70.70;;;;;;6199757;28;20255;-72
2023/09/15 15:39:04;;;;;;;3.97;3.67;;;23.30;71.50;;;;;;6219195;28;20179;-71
2023/09/15 15:42:05;;;;;;;4.27;3.97;;;23.00;71.70;;;;;;6222914;28;20195;-71
2023/09/15 15:45:06;;;;;;;3.93;3.60;;;22.70;72.70;;;;;;6203261;28;20246;-72
2023/09/15 15:48:08;;;;;;;4.83;3.80;;;;;;;;;;6205195;28;20191;-72
2023/09/15 15:51:09;;;;;;;4.53;3.97;;;;;;;;;;6221038;28;20292;-71
2023/09/15 15:54:12;;;;;;;4.40;4.00;;;;;;;;;;6204174;28;20183;-72
2023/09/15 15:57:13;;;;;;;4.00;3.70;;;;;;;;;;6212988;28;20195;-72
2023/09/15 16:00:15;;;;;;;3.60;3.30;;;;;;;;;;6205820;28;20194;-72
2023/09/15 16:03:16;;;;;;;4.47;4.17;;;;;;;;;;6209453;28;20249;-72
2023/09/15 16:06:17;;;;;;;3.60;3.30;;;;;;;;;;6201535;28;20195;-72
2023/09/15 16:09:20;;;;;;;5.70;4.37;;;;;;;;;;6206266;28;20199;-72
2023/09/15 16:12:21;;;;;;;4.77;4.17;;;;;;;;;;6199913;28;20208;-72
2023/09/15 16:15:22;;;;;;;4.67;3.80;;;;;;;;;;6215365;28;20278;-72
2023/09/15 16:18:24;;;;;;;5.10;4.30;;;;;;;;;;6205540;28;20271;-72
2023/09/15 16:21:25;;;;;;;5.87;4.30;;;;;;;;;;6208027;28;20230;-72
2023/09/15 16:24:26;;;;;;;3.37;3.17;;;;;;;;;;6201489;28;20349;-72
2023/09/15 16:27:27;;;;;;;4.10;3.80;;;;;;;;;;6192729;28;20192;-72
2023/09/15 16:30:29;;;;;;;5.77;4.20;;;;;;;;;;6202669;28;20265;-72
2023/09/15 16:33:30;;;;;;;4.83;4.17;;;;;;;;;;6203324;28;20335;-72
2023/09/15 16:36:31;;;;;;;5.20;4.73;;;;;;;;;;6208303;28;20187;-72
2023/09/15 16:39:33;;;;;;;4.27;3.87;;;;;;;;;;6202872;28;20278;-72
2023/09/15 16:42:33;;;;;;;4.93;4.53;;;22.50;73.60;;;;;;6213931;28;20191;-72
2023/09/15 16:45:35;;;;;;;6.53;4.43;;;;;;;;;;6177993;28;20262;-72
2023/09/15 16:48:36;;;;;;;5.13;4.73;;;;;;;;;;6201366;28;20292;-70
2023/09/15 16:51:37;;;;;;;5.03;4.40;;;;;;;;;;6205788;28;20204;-72
2023/09/15 16:54:38;;;;;;;5.27;4.10;;;;;;;;;;6204227;28;20292;-73
2023/09/15 16:57:40;;;;;;;7.43;4.33;;;;;;;;;;6210055;28;20188;-71
2023/09/15 17:00:41;;;;;;;4.60;4.20;;;;;;;;;;6204836;28;20277;-72
2023/09/15 17:03:43;;;;;;;4.40;4.00;;;;;;;;;;6205406;28;20271;-72
2023/09/15 17:06:44;;;;;;;4.80;4.20;;;;;;;;;;6199988;28;20237;-72
2023/09/15 17:09:45;;;;;;;5.63;4.47;;;;;;;;;;6217830;28;20187;-72
2023/09/15 17:12:46;;;;;;;4.90;4.50;;;;;;;;;;6199590;28;20250;-72
2023/09/15 17:15:48;;;;;;;5.53;4.93;;;;;;;;;;6210130;28;20187;-72
2023/09/15 17:18:50;;;;;;;4.87;4.47;;;;;;;;;;6219652;28;20210;-72
2023/09/15 17:21:51;;;;;;;5.67;4.47;;;;;;;;;;6203976;28;20188;-71
2023/09/15 17:24:52;;;;;;;5.17;4.67;;;;;;;;;;6195610;28;20230;-71
2023/09/15 17:27:54;;;;;;;4.87;4.37;;;;;;;;;;6203579;28;20222;-71
2023/09/15 17:30:55;;;;;;;5.10;4.60;;;;;;;;;;6203506;28;20191;-71
2023/09/15 17:33:56;;;;;;;7.83;5.37;;;;;;;;;;6198828;28;20217;-71
2023/09/15 17:36:57;;;;;;;5.50;4.83;;;;;;;;;;6206901;28;20194;-72